地図

経路データ

SID SEASON NUMBER BASIN SUBBASIN NAME ISO_TIME NATURE LAT LON WMO_WIND WMO_PRES WMO_AGENCY TRACK_TYPE DIST2LAND LANDFALL IFLAG USA_AGENCY USA_ATCF_ID USA_LAT USA_LON USA_RECORD USA_STATUS USA_WIND USA_PRES USA_SSHS USA_R34_NE USA_R34_SE USA_R34_SW USA_R34_NW USA_R50_NE USA_R50_SE USA_R50_SW USA_R50_NW USA_R64_NE USA_R64_SE USA_R64_SW USA_R64_NW USA_POCI USA_ROCI USA_RMW USA_EYE TOKYO_LAT TOKYO_LON TOKYO_GRADE TOKYO_WIND TOKYO_PRES TOKYO_R50_DIR TOKYO_R50_LONG TOKYO_R50_SHORT TOKYO_R30_DIR TOKYO_R30_LONG TOKYO_R30_SHORT TOKYO_LAND CMA_LAT CMA_LON CMA_CAT CMA_WIND CMA_PRES HKO_LAT HKO_LON HKO_CAT HKO_WIND HKO_PRES NEWDELHI_LAT NEWDELHI_LON NEWDELHI_GRADE NEWDELHI_WIND NEWDELHI_PRES NEWDELHI_CI NEWDELHI_DP NEWDELHI_POCI REUNION_LAT REUNION_LON REUNION_TYPE REUNION_WIND REUNION_PRES REUNION_TNUM REUNION_CI REUNION_RMW REUNION_R34_NE REUNION_R34_SE REUNION_R34_SW REUNION_R34_NW REUNION_R50_NE REUNION_R50_SE REUNION_R50_SW REUNION_R50_NW REUNION_R64_NE REUNION_R64_SE REUNION_R64_SW REUNION_R64_NW BOM_LAT BOM_LON BOM_TYPE BOM_WIND BOM_PRES BOM_TNUM BOM_CI BOM_RMW BOM_R34_NE BOM_R34_SE BOM_R34_SW BOM_R34_NW BOM_R50_NE BOM_R50_SE BOM_R50_SW BOM_R50_NW BOM_R64_NE BOM_R64_SE BOM_R64_SW BOM_R64_NW BOM_ROCI BOM_POCI BOM_EYE BOM_POS_METHOD BOM_PRES_METHOD NADI_LAT NADI_LON NADI_CAT NADI_WIND NADI_PRES WELLINGTON_LAT WELLINGTON_LON WELLINGTON_WIND WELLINGTON_PRES DS824_LAT DS824_LON DS824_STAGE DS824_WIND DS824_PRES TD9636_LAT TD9636_LON TD9636_STAGE TD9636_WIND TD9636_PRES TD9635_LAT TD9635_LON TD9635_WIND TD9635_PRES TD9635_ROCI NEUMANN_LAT NEUMANN_LON NEUMANN_CLASS NEUMANN_WIND NEUMANN_PRES MLC_LAT MLC_LON MLC_CLASS MLC_WIND MLC_PRES USA_GUST BOM_GUST BOM_GUST_PER REUNION_GUST REUNION_GUST_PER USA_SEAHGT USA_SEARAD_NE USA_SEARAD_SE USA_SEARAD_SW USA_SEARAD_NW STORM_SPEED STORM_DIR
1982075S12055 1982 21 SI MM JUSTINE 1982-03-16 06:00:00 TS -12.2000 54.7000 main 527 506 O_________O_O_ jtwc_sh SH241982 -12.2000 54.7000 25 -1 -12.2000 54.7000 1 25 -12.2000 54.7000 TC 25 5 271
1982075S12055 1982 21 SI MM JUSTINE 1982-03-16 09:00:00 TS -12.1961 54.4490 main 495 471 P_________P_P_ SH241982 -12.1926 54.4400 27 -1 -12.2033 54.4671 1 27 -12.1926 54.4400 TC 27 5 260
1982075S12055 1982 21 SI MM JUSTINE 1982-03-16 12:00:00 TS -12.2846 54.2212 20 reunion main 471 451 O____O____P_O_ jtwc_sh SH241982 -12.2000 54.2000 30 -1 -13.0000 54.3000 2 20 1.00000 1.00000 -12.2152 54.2374 1 30 -12.2000 54.2000 TC 30 5 251
1982075S12055 1982 21 SI MM JUSTINE 1982-03-16 15:00:00 TS -12.3452 54.0090 main 451 427 P____P____P_P_ SH241982 -12.2350 53.9925 32 -1 -12.9875 54.0650 2 -12.2445 54.0140 1 32 -12.2350 53.9925 TC 32 4 249
1982075S12055 1982 21 SI MM JUSTINE 1982-03-16 18:00:00 TS -12.4400 53.8000 reunion main 427 403 O____O____O_O_ jtwc_sh SH241982 -12.3000 53.8000 35 0 -13.0000 53.8000 99 9.90000 -12.3000 53.8000 2 35 -12.3000 53.8000 TC 35 5 244
1982075S12055 1982 21 SI MM JUSTINE 1982-03-16 21:00:00 TS -12.5554 53.5724 main 400 379 P____P____P_P_ SH241982 -12.3925 53.6000 37 0 -13.0500 53.4925 99 -12.3865 53.5969 2 37 -12.3925 53.6000 TC 37 5 245
1982075S12055 1982 21 SI MM JUSTINE 1982-03-17 00:00:00 TS -12.6481 53.3500 reunion main 379 355 O____O____P_O_ jtwc_sh SH241982 -12.5000 53.4000 40 0 -13.1000 53.2000 99 9.90000 -12.4924 53.4001 2 40 -12.5000 53.4000 TC 40 4 247
1982075S12055 1982 21 SI MM JUSTINE 1982-03-17 03:00:00 TS -12.7292 53.1489 main 345 331 P____P____P_P_ SH241982 -12.6075 53.2000 42 0 -13.0999 52.9925 99 -12.6021 53.2032 2 42 -12.6075 53.2000 TC 42 4 249
1982075S12055 1982 21 SI MM JUSTINE 1982-03-17 06:00:00 TS -12.8000 52.9500 52 976 reunion main 331 308 O____O____O_O_ jtwc_sh SH241982 -12.7000 53.0000 45 0 -13.1000 52.8000 3 52 976 4.00000 4.00000 -12.7000 53.0000 2 45 -12.7000 53.0000 TC 45 4 253
1982075S12055 1982 21 SI MM JUSTINE 1982-03-17 09:00:00 TS -12.8543 52.7398 main 297 276 P____P____P_P_ SH241982 -12.7575 52.8075 47 0 -13.1500 52.5500 3 -12.7521 52.7942 2 47 -12.7575 52.8075 TC 47 4 257
1982075S12055 1982 21 SI MM JUSTINE 1982-03-17 12:00:00 TS -12.8981 52.5199 reunion main 276 255 O____O____P_O_ jtwc_sh SH241982 -12.8000 52.6000 50 0 -13.2000 52.3000 99 9.90000 -12.7923 52.5797 2 50 -12.8000 52.6000 TC 50 4 260
1982075S12055 1982 21 SI MM JUSTINE 1982-03-17 15:00:00 TS -12.9303 52.2988 main 255 231 P____P____P_P_ SH241982 -12.8425 52.3650 52 0 -13.1999 52.1150 99 -12.8364 52.3504 2 52 -12.8425 52.3650 TC 52 5 260
1982075S12055 1982 21 SI MM JUSTINE 1982-03-17 18:00:00 TS -12.9750 52.0500 reunion main 231 200 O____O____O_O_ jtwc_sh SH241982 -12.9000 52.1000 55 0 -13.2000 51.9000 99 9.90000 -12.9000 52.1000 2 55 -12.9000 52.1000 TC 55 5 258
1982075S12055 1982 21 SI MM JUSTINE 1982-03-17 21:00:00 TS -13.0463 51.7486 main 189 165 P____P____P_P_ SH241982 -12.9850 51.8075 60 0 -13.2201 51.5500 99 -12.9953 51.8296 2 58 -12.9850 51.8075 TC 60 6 253
1982075S12055 1982 21 SI MM JUSTINE 1982-03-18 00:00:00 TS -13.1531 51.4343 reunion main 153 130 O____O____P_O_ jtwc_sh SH241982 -13.1000 51.5000 65 1 -13.3000 51.2000 99 9.90000 -13.1124 51.5374 2 62 -13.1000 51.5000 TC 65 6 247
1982075S12055 1982 21 SI MM JUSTINE 1982-03-18 03:00:00 TS -13.2989 51.1472 main 119 92 P____P____P_P_ SH241982 -13.2424 51.2075 67 1 -13.4625 50.9476 99 -13.2483 51.2264 2 66 -13.2424 51.2075 TC 67 6 239
1982075S12055 1982 21 SI MM JUSTINE 1982-03-18 06:00:00 TS -13.4750 50.8750 72 954 reunion main 92 55 O____O____O_O_ jtwc_sh SH241982 -13.4000 50.9000 70 1 -13.7000 50.8000 4 72 954 5.00000 5.00000 -13.4000 50.9000 4 70 -13.4000 50.9000 TC 70 6 233
1982075S12055 1982 21 SI MM JUSTINE 1982-03-18 09:00:00 TS -13.6726 50.6303 main 55 32 P____P____P_P_ SH241982 -13.5425 50.5574 70 1 -14.0449 50.8299 4 -13.5604 50.5765 4 67 -13.5425 50.5574 TC 70 6 233
1982075S12055 1982 21 SI MM JUSTINE 1982-03-18 12:00:00 TS -13.8587 50.3593 reunion main 32 0 O____O____P_O_ jtwc_sh SH241982 -13.7000 50.2000 70 1 -14.3000 50.8000 99 9.90000 -13.7347 50.2373 4 65 -13.7000 50.2000 TC 70 7 245
1982075S12055 1982 21 SI MM JUSTINE 1982-03-18 15:00:00 TS -13.9529 50.0096 main 0 0 P____P____P_P_ SH241982 -13.8924 49.8575 65 1 -14.1102 50.4441 99 -13.9166 49.8795 4 62 -13.8924 49.8575 TC 65 8 251
1982075S12055 1982 21 SI MM JUSTINE 1982-03-18 18:00:00 TS -14.1000 49.6250 reunion main 0 0 O____O____O_O_ jtwc_sh SH241982 -14.1000 49.5000 60 0 -14.1000 50.0000 99 9.90000 -14.1000 49.5000 2 60 -14.1000 49.5000 TC 60 9 234
1982075S12055 1982 21 SI MM JUSTINE 1982-03-18 21:00:00 TS -14.4744 49.2602 main 0 0 P____P____P_P_ SH241982 -14.3074 49.1150 52 0 -14.9999 49.6860 99 -14.2827 49.1248 2 53 -14.3074 49.1150 TC 52 10 224
1982075S12055 1982 21 SI MM JUSTINE 1982-03-19 00:00:00 TS -14.8411 48.8812 reunion main 0 0 O____O____P_O_ jtwc_sh SH241982 -14.5000 48.7000 45 0 -15.9000 49.4000 99 9.90000 -14.4643 48.7247 2 47 -14.5000 48.7000 TC 45 9 236
1982075S12055 1982 21 SI MM JUSTINE 1982-03-19 03:00:00 TS -14.9701 48.5053 main 0 0 P____P____P_P_ SH241982 -14.6573 48.2799 40 0 -15.9269 49.1743 99 -14.6388 48.2873 2 41 -14.6573 48.2799 TC 40 8 257
1982075S12055 1982 21 SI MM JUSTINE 1982-03-19 06:00:00 TS -15.0250 48.0500 52 976 reunion main 0 0 O____O____O_O_ jtwc_sh SH241982 -14.8000 47.8000 35 0 -15.7000 48.8000 3 52 976 4.00000 4.00000 -14.8000 47.8000 2 35 -14.8000 47.8000 TC 35 11 261
1982075S12055 1982 21 SI MM JUSTINE 1982-03-19 09:00:00 TS -15.1440 47.4232 main 0 0 P____P____P_P_ SH241982 -14.9575 47.2225 35 0 -15.7208 48.0301 3 -14.9400 47.2178 2 36 -14.9575 47.2225 TC 35 13 259
1982075S12055 1982 21 SI MM JUSTINE 1982-03-19 12:00:00 TS -15.2665 46.7481 reunion main 10 10 O____O____P_O_ jtwc_sh SH241982 -15.1000 46.6000 35 0 -15.8000 47.2000 99 9.90000 -15.0660 46.5924 2 37 -15.1000 46.6000 TC 35 13 260
1982075S12055 1982 21 SI MM JUSTINE 1982-03-19 15:00:00 TS -15.3652 46.1451 main 39 39 P____P____P_P_ SH241982 -15.2076 45.9699 37 0 -15.8619 46.6697 99 -15.1838 45.9709 2 38 -15.2076 45.9699 TC 37 11 259
1982075S12055 1982 21 SI MM JUSTINE 1982-03-19 18:00:00 TS -15.4750 45.6000 reunion main 44 44 O____O____O_O_ jtwc_sh SH241982 -15.3000 45.4000 40 0 -16.0000 46.2000 99 9.90000 -15.3000 45.4000 2 40 -15.3000 45.4000 TC 40 10 255
1982075S12055 1982 21 SI MM JUSTINE 1982-03-19 21:00:00 TS -15.6262 45.1215 main 44 35 P____P____P_P_ SH241982 -15.3922 44.9699 42 0 -16.3000 45.6079 99 -15.4201 44.9382 2 42 -15.3922 44.9699 TC 42 9 251
1982075S12055 1982 21 SI MM JUSTINE 1982-03-20 00:00:00 TS -15.7854 44.6830 reunion main 46 44 O____O____P_O_ jtwc_sh SH241982 -15.5000 44.6000 45 0 -16.6000 45.0000 99 9.90000 -15.5415 44.5321 2 45 -15.5000 44.6000 TC 45 9 251
1982075S12055 1982 21 SI MM JUSTINE 1982-03-20 03:00:00 TS -15.9224 44.2449 main 49 46 P____P____P_P_ SH241982 -15.6424 44.2000 47 0 -16.7374 44.4198 99 -15.6672 44.1600 2 47 -15.6424 44.2000 TC 47 9 252
1982075S12055 1982 21 SI MM JUSTINE 1982-03-20 06:00:00 TS -16.0500 43.8250 36 991 reunion main 72 67 O____O____O_O_ jtwc_sh SH241982 -15.8000 43.8000 50 0 -16.8000 43.9000 3 36 991 3.00000 3.00000 -15.8000 43.8000 2 50 -15.8000 43.8000 TC 50 8 252
1982075S12055 1982 21 SI MM JUSTINE 1982-03-20 09:00:00 TS -16.1751 43.4190 main 107 107 P____P____P_P_ SH241982 -15.9500 43.3925 50 0 -16.8498 43.4774 3 -15.9507 43.4138 2 51 -15.9500 43.3925 TC 50 8 252
1982075S12055 1982 21 SI MM JUSTINE 1982-03-20 12:00:00 TS -16.3018 43.0338 reunion main 149 149 O____O____P_O_ jtwc_sh SH241982 -16.1000 43.0000 50 0 -16.9000 43.1000 99 9.90000 -16.1072 43.0350 2 52 -16.1000 43.0000 TC 50 8 250
1982075S12055 1982 21 SI MM JUSTINE 1982-03-20 15:00:00 TS -16.4325 42.6640 main 173 173 P____P____P_P_ SH241982 -16.2574 42.6425 52 0 -16.9549 42.7072 99 -16.2601 42.6638 2 53 -16.2574 42.6425 TC 52 8 249
1982075S12055 1982 21 SI MM JUSTINE 1982-03-20 18:00:00 TS -16.5750 42.3000 reunion main 197 195 O____O____O_O_ jtwc_sh SH241982 -16.4000 42.3000 55 0 -17.1000 42.3000 99 9.90000 -16.4000 42.3000 2 55 -16.4000 42.3000 TC 55 8 246
1982075S12055 1982 21 SI MM JUSTINE 1982-03-20 21:00:00 TS -16.7467 41.9173 main 195 185 P____P____P_P_ SH241982 -16.5074 41.9499 55 0 -17.4575 41.8430 99 -16.5143 41.9264 2 56 -16.5074 41.9499 TC 55 8 246
1982075S12055 1982 21 SI MM JUSTINE 1982-03-21 00:00:00 TS -16.9037 41.5406 reunion main 177 156 O____O____P_O_ jtwc_sh SH241982 -16.6000 41.6000 55 0 -17.8000 41.4000 99 9.90000 -16.6150 41.5623 2 57 -16.6000 41.6000 TC 55 8 250
1982075S12055 1982 21 SI MM JUSTINE 1982-03-21 03:00:00 TS -17.0045 41.1804 main 156 135 P____P____P_P_ SH241982 -16.7000 41.2425 57 0 -17.9099 41.0197 99 -16.7081 41.2170 2 58 -16.7000 41.2425 TC 57 7 255
1982075S12055 1982 21 SI MM JUSTINE 1982-03-21 06:00:00 TS -17.0750 40.8500 72 954 reunion main 135 108 O____O____O_O_ jtwc_sh SH241982 -16.8000 40.9000 60 0 -17.9000 40.7000 4 72 954 5.00000 5.00000 -16.8000 40.9000 2 60 -16.8000 40.9000 TC 60 6 257
1982075S12055 1982 21 SI MM JUSTINE 1982-03-21 09:00:00 TS -17.1469 40.5498 main 100 94 P____P____P_P_ SH241982 -16.9000 40.5775 60 0 -17.8799 40.4350 4 -16.9079 40.6090 2 61 -16.9000 40.5775 TC 60 6 257
1982075S12055 1982 21 SI MM JUSTINE 1982-03-21 12:00:00 TS -17.2037 40.2869 reunion main 94 84 O____O____P_O_ jtwc_sh SH241982 -17.0000 40.3000 60 0 -17.8000 40.2000 99 9.90000 -17.0148 40.3475 2 62 -17.0000 40.3000 TC 60 5 258
1982075S12055 1982 21 SI MM JUSTINE 1982-03-21 15:00:00 TS -17.2466 40.0637 main 84 84 P____P____P_P_ SH241982 -17.1074 40.0850 62 0 -17.6574 39.9725 99 -17.1142 40.1122 2 63 -17.1074 40.0850 TC 62 4 260
1982075S12055 1982 21 SI MM JUSTINE 1982-03-21 18:00:00 TS -17.2750 39.8500 reunion main 84 62 O____O____O_O_ jtwc_sh SH241982 -17.2000 39.9000 65 1 -17.5000 39.7000 99 9.90000 -17.2000 39.9000 4 65 -17.2000 39.9000 TC 65 5 267
1982075S12055 1982 21 SI MM JUSTINE 1982-03-21 21:00:00 TS -17.2741 39.5827 main 62 46 P____P____P_P_ SH241982 -17.2575 39.6925 67 1 -17.3253 39.2548 99 -17.2562 39.6911 4 66 -17.2575 39.6925 TC 67 5 267
1982075S12055 1982 21 SI MM JUSTINE 1982-03-22 00:00:00 TS -17.3000 39.3512 reunion main 46 39 O____O____P_O_ jtwc_sh SH241982 -17.3000 39.5000 70 1 -17.3000 38.9000 99 9.90000 -17.2999 39.5048 4 67 -17.3000 39.5000 TC 70 4 247
1982075S12055 1982 21 SI MM JUSTINE 1982-03-22 03:00:00 TS -17.4178 39.2215 main 46 46 P____P____P_P_ SH241982 -17.3500 39.3350 70 1 -17.6274 38.8749 99 -17.3437 39.3411 4 68 -17.3500 39.3350 TC 70 3 218
1982075S12055 1982 21 SI MM JUSTINE 1982-03-22 06:00:00 TS -17.5500 39.1500 82 941 reunion main 56 67 O____O____O_O_ jtwc_sh SH241982 -17.4000 39.2000 70 1 -18.0000 39.0000 4 82 941 5.50000 5.50000 -17.4000 39.2000 4 70 -17.4000 39.2000 TC 70 2 217
1982075S12055 1982 21 SI MM JUSTINE 1982-03-22 09:00:00 TS -17.6058 39.0793 main 67 64 P____P____P_P_ SH241982 -17.4350 39.0925 70 1 -18.0799 39.0701 4 -17.4734 39.0622 4 70 -17.4350 39.0925 TC 70 2 223
1982075S12055 1982 21 SI MM JUSTINE 1982-03-22 12:00:00 TS -17.6656 39.0369 reunion main 74 74 O____O____P_O_ jtwc_sh SH241982 -17.5000 39.0000 70 1 -18.1000 39.2000 99 9.90000 -17.5625 38.9475 4 70 -17.5000 39.0000 TC 70 2 196
1982075S12055 1982 21 SI MM JUSTINE 1982-03-22 15:00:00 TS -17.7920 39.0216 main 84 84 P____P____P_P_ SH241982 -17.6350 38.8850 70 1 -18.2276 39.4574 99 -17.6703 38.8591 4 70 -17.6350 38.8850 TC 70 3 185
1982075S12055 1982 21 SI MM JUSTINE 1982-03-22 18:00:00 TS -17.9500 39.0250 reunion main 95 95 O____O____O_O_ jtwc_sh SH241982 -17.8000 38.8000 70 1 -18.4000 39.7000 99 9.90000 -17.8000 38.8000 4 70 -17.8000 38.8000 TC 70 3 179
1982075S12055 1982 21 SI MM JUSTINE 1982-03-22 21:00:00 TS -18.1133 39.0366 main 116 116 P____P____P_P_ SH241982 -17.9425 38.7850 70 1 -18.6149 39.8175 99 -17.9534 38.7591 4 70 -17.9425 38.7850 TC 70 3 0
1982075S12055 1982 21 SI MM JUSTINE 1982-03-23 00:00:00 TS -18.2819 39.0369 reunion main 137 137 O____O____P_O_ jtwc_sh SH241982 -18.1000 38.8000 70 1 -18.8000 39.8000 99 9.90000 -18.1274 38.7475 4 70 -18.1000 38.8000 TC 70 3 187
1982075S12055 1982 21 SI MM JUSTINE 1982-03-23 03:00:00 TS -18.4463 39.0018 main 148 148 P____P____P_P_ SH241982 -18.3000 38.7925 70 1 -18.8724 39.6600 99 -18.3128 38.7622 4 70 -18.3000 38.7925 TC 70 3 195
1982075S12055 1982 21 SI MM JUSTINE 1982-03-23 06:00:00 TS -18.6000 38.9500 44 984 reunion main 170 168 O____O____O_O_ jtwc_sh SH241982 -18.5000 38.8000 70 1 -18.9000 39.4000 3 44 984 3.50000 3.50000 -18.5000 38.8000 4 70 -18.5000 38.8000 TC 70 3 199
1982075S12055 1982 21 SI MM JUSTINE 1982-03-23 09:00:00 TS -18.7282 38.8958 main 178 178 P____P____P_P_ SH241982 -18.6500 38.8350 70 1 -18.9500 39.0800 3 -18.6627 38.8333 4 70 -18.6500 38.8350 TC 70 3 200
1982075S12055 1982 21 SI MM JUSTINE 1982-03-23 12:00:00 TS -18.8568 38.8476 reunion main 193 193 O____O____P_O_ jtwc_sh SH241982 -18.8000 38.9000 70 1 -19.0000 38.7000 99 9.90000 -18.8274 38.8903 4 70 -18.8000 38.9000 TC 70 3 198
1982075S12055 1982 21 SI MM JUSTINE 1982-03-23 15:00:00 TS -18.9946 38.7987 main 204 204 P____P____P_P_ SH241982 -18.9925 38.9850 70 1 -18.9902 38.2474 99 -19.0033 38.9772 4 70 -18.9925 38.9850 TC 70 3 188
1982075S12055 1982 21 SI MM JUSTINE 1982-03-23 18:00:00 TS -19.1750 38.8000 reunion main 225 225 O____O____O_O_ jtwc_sh SH241982 -19.2000 39.1000 70 1 -19.1000 37.9000 99 9.90000 -19.2000 39.1000 4 70 -19.2000 39.1000 TC 70 4 171
1982075S12055 1982 21 SI MM JUSTINE 1982-03-23 21:00:00 TS -19.4187 38.8764 main 247 247 P____P____P_P_ SH241982 -19.3850 39.2276 70 1 -19.5048 37.8100 99 -19.3999 39.2402 4 70 -19.3850 39.2276 TC 70 6 158
1982075S12055 1982 21 SI MM JUSTINE 1982-03-24 00:00:00 TS -19.7062 39.0296 reunion main 276 276 O____O____P_O_ jtwc_sh SH241982 -19.6000 39.4000 70 1 -20.0000 37.9000 99 9.90000 -19.6248 39.4185 4 70 -19.6000 39.4000 TC 70 7 151
1982075S12055 1982 21 SI MM JUSTINE 1982-03-24 03:00:00 TS -19.9960 39.2165 main 314 314 P____P____P_P_ SH241982 -19.8700 39.6276 70 1 -20.3568 37.9732 99 -19.8873 39.6374 4 70 -19.8700 39.6276 TC 70 8 144
1982075S12055 1982 21 SI MM JUSTINE 1982-03-24 06:00:00 TS -20.3250 39.5000 52 976 reunion main 359 359 O____O____O_O_ jtwc_sh SH241982 -20.2000 39.9000 70 1 -20.7000 38.3000 3 52 976 4.00000 4.00000 -20.2000 39.9000 4 70 -20.2000 39.9000 TC 70 10 138
1982075S12055 1982 21 SI MM JUSTINE 1982-03-24 09:00:00 TS -20.7006 39.9032 main 380 323 P____P____P_P_ SH241982 -20.5774 40.1777 72 1 -21.0936 39.0819 3 -20.5540 40.1753 4 71 -20.5774 40.1777 TC 72 11 134
1982075S12055 1982 21 SI MM JUSTINE 1982-03-24 12:00:00 TS -21.1148 40.3742 reunion main 314 259 O____O____P_O_ jtwc_sh SH241982 -21.0000 40.5000 75 1 -21.5000 40.0000 99 9.90000 -20.9594 40.4966 4 72 -21.0000 40.5000 TC 75 12 134
1982075S12055 1982 21 SI MM JUSTINE 1982-03-24 15:00:00 TS -21.5315 40.8118 main 259 196 P____P____P_P_ SH241982 -21.4348 40.8629 75 1 -21.8465 40.6518 99 -21.4101 40.8696 4 73 -21.4348 40.8629 TC 75 12 136
1982075S12055 1982 21 SI MM JUSTINE 1982-03-24 18:00:00 TS -22.0000 41.3000 reunion main 196 135 O____O____O_O_ jtwc_sh SH241982 -21.9000 41.3000 75 1 -22.3000 41.3000 99 9.90000 -21.9000 41.3000 4 75 -21.9000 41.3000 TC 75 14 135
1982075S12055 1982 21 SI MM JUSTINE 1982-03-24 21:00:00 TS -22.5505 41.9006 main 137 98 P____P____P_P_ SH241982 -22.3775 41.8278 72 1 -23.0725 42.1182 99 -22.3746 41.8287 4 72 -22.3775 41.8278 TC 72 16 134
1982075S12055 1982 21 SI MM JUSTINE 1982-03-25 00:00:00 TS -23.1223 42.5518 reunion main 88 42 O____O____P_O_ jtwc_sh SH241982 -22.9000 42.4000 70 1 -23.8000 43.0000 99 9.90000 -22.8893 42.4071 4 70 -22.9000 42.4000 TC 70 16 131
1982075S12055 1982 21 SI MM JUSTINE 1982-03-25 03:00:00 TS -23.6106 43.2211 main 42 0 P____P____P_P_ SH241982 -23.4625 42.9727 67 1 -24.0582 43.9567 99 -23.4591 42.9820 4 67 -23.4625 42.9727 TC 67 15 132
1982075S12055 1982 21 SI MM JUSTINE 1982-03-25 06:00:00 MX -24.1500 43.8000 52 976 reunion main 0 0 O____O____O_O_ jtwc_sh SH241982 -24.1000 43.5000 65 1 -24.3000 44.7000 5 52 976 4.00000 4.00000 -24.1000 43.5000 4 65 -24.1000 43.5000 TC 65 15 144
1982075S12055 1982 21 SI MM JUSTINE 1982-03-25 09:00:00 MX -24.8466 44.1991 main 0 0 P____P____P_P_ SH241982 -24.8124 43.9453 62 0 -24.9392 44.9853 5 -24.8224 43.9206 4 61 -24.8124 43.9453 TC 62 16 157
1982075S12055 1982 21 SI MM JUSTINE 1982-03-25 12:00:00 TS -25.6334 44.5058 reunion main 33 33 O____O____P_O_ jtwc_sh SH241982 -25.6000 44.3000 60 0 -25.7000 45.0000 99 9.90000 -25.6113 44.2584 4 57 -25.6000 44.3000 TC 60 17 162
1982075S12055 1982 21 SI MM JUSTINE 1982-03-25 15:00:00 TS -26.4128 44.7560 main 97 97 P____P____P_P_ SH241982 -26.4376 44.5720 55 0 -26.3722 45.0469 99 -26.4447 44.5419 4 53 -26.4376 44.5720 TC 55 15 168
1982075S12055 1982 21 SI MM JUSTINE 1982-03-25 18:00:00 TS -27.1286 44.8571 reunion main 170 170 O____O____O_O_ jtwc_sh SH241982 -27.3000 44.8000 50 0 -27.0000 44.9000 99 9.90000 -27.3000 44.8000 2 50 -27.3000 44.8000 TC 50 12 193
1982075S12055 1982 21 SI MM JUSTINE 1982-03-25 21:00:00 NR -27.5429 44.4602 main 223 223 _____P________ SH241982 -1 -27.5429 44.4602 99 2 TC 13 221
1982075S12055 1982 21 SI MM JUSTINE 1982-03-26 00:00:00 NR -28.1000 43.9000 reunion main 307 307 _____O________ -1 -28.1000 43.9000 99 9.90000 2 16 216
1982075S12055 1982 21 SI MM JUSTINE 1982-03-26 03:00:00 NR -28.8301 43.4058 main 399 399 _____P________ -1 -28.8301 43.4058 99 2 16 209
1982075S12055 1982 21 SI MM JUSTINE 1982-03-26 06:00:00 ET -29.5000 43.0000 52 976 reunion main 486 486 _____O________ -1 -29.5000 43.0000 5 52 976 4.00000 4.00000 12 208
1982075S12055 1982 21 SI MM JUSTINE 1982-03-26 09:00:00 ET -29.8872 42.7539 main 534 534 _____P________ -1 -29.8872 42.7539 5 8 206
1982075S12055 1982 21 SI MM JUSTINE 1982-03-26 12:00:00 NR -30.2000 42.6000 reunion main 573 573 _____O________ -1 -30.2000 42.6000 99 9.90000 8 199
1982075S12055 1982 21 SI MM JUSTINE 1982-03-26 15:00:00 NR -30.6424 42.4498 main 621 621 _____P________ -1 -30.6424 42.4498 99 9 196
1982075S12055 1982 21 SI MM JUSTINE 1982-03-26 18:00:00 NR -31.1000 42.3000 reunion main 676 676 _____O________ -1 -31.1000 42.3000 99 9.90000 9 196
1982075S12055 1982 21 SI MM JUSTINE 1982-03-26 21:00:00 NR -31.5447 42.1523 main 720 720 _____P________ -1 -31.5447 42.1523 99 9 203
1982075S12055 1982 21 SI MM JUSTINE 1982-03-27 00:00:00 NR -31.9000 41.9000 reunion main 773 773 _____O________ -1 -31.9000 41.9000 99 9.90000 8 227
1982075S12055 1982 21 SI MM JUSTINE 1982-03-27 03:00:00 NR -32.0983 41.4577 main 809 809 _____P________ -1 -32.0983 41.4577 99 9 250
1982075S12055 1982 21 SI MM JUSTINE 1982-03-27 06:00:00 ET -32.2000 40.9000 52 976 reunion main 842 _____O________ -1 -32.2000 40.9000 5 52 976 4.00000 4.00000 10 258

IBTrACS Databaseについて

本データベースは、米国NOAAが公開する1842年以降の世界の熱帯低気圧のベストトラックデータアーカイブInternational Best Track Archive for Climate Stewardship (IBTrACS)を、ウェブで閲覧しやすい形式に変換したものです。

最終更新日:2021-11-26